createdAt,value
2023-04-07T00:00:42.562Z,99130.81
2023-04-07T00:01:47.862Z,99129.37
2023-04-07T00:02:53.326Z,99129.59
2023-04-07T00:03:59.608Z,99133.27
2023-04-07T00:05:05.563Z,99123.36
2023-04-07T00:06:11.068Z,99121.12
2023-04-07T00:07:16.337Z,99132.72
2023-04-07T00:08:21.548Z,99137.39
2023-04-07T00:09:26.746Z,99138.84
2023-04-07T00:10:31.960Z,99135.58
2023-04-07T00:11:37.169Z,99134.06
2023-04-07T00:12:42.362Z,99134.14
2023-04-07T00:13:47.564Z,99130.02
2023-04-07T00:14:52.786Z,99131.76
2023-04-07T00:15:58.063Z,99121.98
2023-04-07T00:17:03.332Z,99122.09
2023-04-07T00:18:08.664Z,99112.59
2023-04-07T00:19:14.077Z,99118.8
2023-04-07T00:20:19.307Z,99119.42
2023-04-07T00:21:24.540Z,99113
2023-04-07T00:22:29.764Z,99115.59
2023-04-07T00:23:34.977Z,99120.95
2023-04-07T00:24:40.203Z,99115.08
2023-04-07T00:25:45.445Z,99116.53
2023-04-07T00:26:50.708Z,99101.59
2023-04-07T00:27:55.918Z,99106.31
2023-04-07T00:29:01.124Z,99108.47
2023-04-07T00:30:06.327Z,99110.55
2023-04-07T00:31:11.641Z,99109.28
2023-04-07T00:32:16.927Z,99108.58
2023-04-07T00:33:22.108Z,99104.64
2023-04-07T00:34:27.303Z,99100.41
2023-04-07T00:35:32.574Z,99106.5
2023-04-07T00:36:37.854Z,99107.62
2023-04-07T00:37:43.107Z,99110.92
2023-04-07T00:38:48.318Z,99106.5
2023-04-07T00:39:53.497Z,99112.26
2023-04-07T00:40:58.680Z,99105.19
2023-04-07T00:42:03.923Z,99105.41
2023-04-07T00:43:09.336Z,99102.74
2023-04-07T00:44:14.534Z,99103.86
2023-04-07T00:45:19.756Z,99103.48
2023-04-07T00:46:25.042Z,99108.78
2023-04-07T00:47:30.433Z,99104.47
2023-04-07T00:48:35.684Z,99106.98
2023-04-07T00:49:40.915Z,99099.7
2023-04-07T00:50:46.095Z,99096.39
2023-04-07T00:51:51.287Z,99099.32
2023-04-07T00:52:56.513Z,99099.95
2023-04-07T00:54:01.725Z,99096.97
2023-04-07T00:55:06.924Z,99096.29
2023-04-07T00:56:12.127Z,99094.43
2023-04-07T00:57:17.330Z,99091.75
2023-04-07T00:58:22.565Z,99100.52
2023-04-07T00:59:27.919Z,99098.39
2023-04-07T01:00:33.120Z,99096.34
2023-04-07T01:01:38.410Z,99092.43
2023-04-07T01:02:44.458Z,99093.58
2023-04-07T01:03:50.471Z,99088.96
2023-04-07T01:04:56.244Z,99091.96
2023-04-07T01:06:01.584Z,99086.41
2023-04-07T01:07:06.794Z,99088.27
2023-04-07T01:08:11.977Z,99085.92
2023-04-07T01:09:17.178Z,99088.81
2023-04-07T01:10:22.334Z,99094.8
2023-04-07T01:11:27.562Z,99086.76
2023-04-07T01:12:32.766Z,99090.88
2023-04-07T01:13:37.937Z,99090.49
2023-04-07T01:14:43.212Z,99086.27
2023-04-07T01:15:48.451Z,99088.94
2023-04-07T01:16:55.994Z,99087.3
2023-04-07T01:18:01.274Z,99090.61
2023-04-07T01:19:06.537Z,99089.87
2023-04-07T01:20:11.779Z,99087.19
2023-04-07T01:21:16.969Z,99083.07
2023-04-07T01:22:22.236Z,99086.67
2023-04-07T01:23:27.437Z,99087.47
2023-04-07T01:24:32.632Z,99090.97
2023-04-07T01:25:37.819Z,99087.66
2023-04-07T01:26:43.024Z,99092.2
2023-04-07T01:27:48.238Z,99089.09
2023-04-07T01:28:53.728Z,99089.31
2023-04-07T01:29:58.941Z,99093.33
2023-04-07T01:31:04.131Z,99090.67
2023-04-07T01:32:09.460Z,99093.45
2023-04-07T01:33:14.761Z,99081.11
2023-04-07T01:34:19.949Z,99092.14
2023-04-07T01:35:25.160Z,99091.53
2023-04-07T01:36:30.344Z,99090.91
2023-04-07T01:37:35.524Z,99087.86
2023-04-07T01:38:40.822Z,99087.66
2023-04-07T01:39:46.013Z,99088.51
2023-04-07T01:40:51.342Z,99090.14
2023-04-07T01:41:56.556Z,99086.34
2023-04-07T01:43:01.750Z,99083.98
2023-04-07T01:44:07.010Z,99085
2023-04-07T01:45:12.238Z,99078.61
2023-04-07T01:46:17.447Z,99067.08
2023-04-07T01:47:22.899Z,99064.91
2023-04-07T01:48:28.491Z,99061.5
2023-04-07T01:49:33.667Z,99062.63
2023-04-07T01:50:38.872Z,99064.91
2023-04-07T01:51:44.076Z,99052.2
2023-04-07T01:52:49.265Z,99055.1
2023-04-07T01:53:54.881Z,99055.9
2023-04-07T01:55:00.620Z,99052.41
2023-04-07T01:56:05.838Z,99043.75
2023-04-07T01:57:11.031Z,99047.44
2023-04-07T01:58:16.268Z,99051.97
2023-04-07T01:59:21.565Z,99061.87
2023-04-07T02:00:26.815Z,99054.74
2023-04-07T02:01:32.227Z,99061.65
2023-04-07T02:02:37.821Z,99060.91
2023-04-07T02:03:43.504Z,99065.26
2023-04-07T02:04:48.924Z,99063.4
2023-04-07T02:05:54.110Z,99065.03
2023-04-07T02:06:59.317Z,99062.08
2023-04-07T02:08:04.548Z,99063.2
2023-04-07T02:09:09.796Z,99071.05
2023-04-07T02:10:15.025Z,99061.38
2023-04-07T02:11:20.255Z,99075.72
2023-04-07T02:12:25.478Z,99081.5
2023-04-07T02:13:30.657Z,99073.16
2023-04-07T02:14:35.887Z,99074.3
2023-04-07T02:15:41.079Z,99077.93
2023-04-07T02:16:49.079Z,99075.03
2023-04-07T02:17:54.779Z,99073.69
2023-04-07T02:19:00.132Z,99068.95
2023-04-07T02:20:05.518Z,99074.67
2023-04-07T02:21:10.743Z,99069.48
2023-04-07T02:22:15.918Z,99063.38
2023-04-07T02:23:21.102Z,99067.11
2023-04-07T02:24:26.278Z,99058.97
2023-04-07T02:25:31.519Z,99064.21
2023-04-07T02:26:36.895Z,99057.61
2023-04-07T02:27:42.077Z,99068.12
2023-04-07T02:28:47.258Z,99069.96
2023-04-07T02:29:52.450Z,99062.97
2023-04-07T02:30:57.694Z,99062.75
2023-04-07T02:32:03.121Z,99065.84
2023-04-07T02:33:08.579Z,99059.96
2023-04-07T02:34:13.941Z,99063.9
2023-04-07T02:35:19.144Z,99059.36
2023-04-07T02:36:24.425Z,99064.81
2023-04-07T02:37:29.616Z,99059.78
2023-04-07T02:38:34.834Z,99064.23
2023-04-07T02:39:40.046Z,99057.47
2023-04-07T02:40:45.275Z,99060.38
2023-04-07T02:41:50.468Z,99055.02
2023-04-07T02:42:55.716Z,99052.77
2023-04-07T02:44:00.899Z,99060.79
2023-04-07T02:45:06.129Z,99059.77
2023-04-07T02:46:11.416Z,99061.21
2023-04-07T02:47:19.471Z,99057.62
2023-04-07T02:48:24.663Z,99052.66
2023-04-07T02:49:29.859Z,99048.86
2023-04-07T02:50:35.074Z,99047.64
2023-04-07T02:51:40.274Z,99054.36
2023-04-07T02:52:45.559Z,99055.06
2023-04-07T02:53:50.746Z,99053.02
2023-04-07T02:54:56.159Z,99047.85
2023-04-07T02:56:01.462Z,99055.17
2023-04-07T02:57:06.688Z,99051.69
2023-04-07T02:58:11.924Z,99057.66
2023-04-07T02:59:17.148Z,99048.81
2023-04-07T03:00:22.357Z,99049.95
2023-04-07T03:01:27.708Z,99050.56
2023-04-07T03:02:33.279Z,99052
2023-04-07T03:03:39.136Z,99055.3
2023-04-07T03:04:44.527Z,99053.84
2023-04-07T03:05:49.728Z,99057.17
2023-04-07T03:06:54.903Z,99059.42
2023-04-07T03:08:00.118Z,99056.75
2023-04-07T03:09:05.333Z,99057.07
2023-04-07T03:10:10.548Z,99057.58
2023-04-07T03:11:15.749Z,99057.98
2023-04-07T03:12:20.952Z,99056.23
2023-04-07T03:13:26.178Z,99054.68
2023-04-07T03:14:31.387Z,99050.45
2023-04-07T03:15:36.591Z,99045.08
2023-04-07T03:16:41.884Z,99047.06
2023-04-07T03:17:47.274Z,99042.5
2023-04-07T03:18:52.583Z,99040.75
2023-04-07T03:19:57.782Z,99042.41
2023-04-07T03:21:02.972Z,99047.13
2023-04-07T03:22:08.191Z,99041.16
2023-04-07T03:23:13.388Z,99035.17
2023-04-07T03:24:18.672Z,99039.11
2023-04-07T03:25:24.072Z,99039.81
2023-04-07T03:26:29.324Z,99042.41
2023-04-07T03:27:34.519Z,99037.05
2023-04-07T03:28:39.726Z,99043.13
2023-04-07T03:29:44.913Z,99041.06
2023-04-07T03:30:50.184Z,99036.43
2023-04-07T03:31:55.408Z,99041.39
2023-04-07T03:33:00.832Z,99038.61
2023-04-07T03:34:06.237Z,99035.3
2023-04-07T03:35:11.444Z,99030.13
2023-04-07T03:36:16.687Z,99030.67
2023-04-07T03:37:21.959Z,99034.17
2023-04-07T03:38:27.225Z,99035.4
2023-04-07T03:39:32.420Z,99036.34
2023-04-07T03:40:37.620Z,99041.8
2023-04-07T03:41:42.861Z,99032.94
2023-04-07T03:42:48.201Z,99033.02
2023-04-07T03:43:53.905Z,99036.56
2023-04-07T03:44:59.342Z,99037.17
2023-04-07T03:46:04.825Z,99035.72
2023-04-07T03:47:10.072Z,99035.31
2023-04-07T03:48:15.252Z,99040.77
2023-04-07T03:49:20.436Z,99047.8
2023-04-07T03:50:25.649Z,99044.79
2023-04-07T03:51:31.058Z,99045.52
2023-04-07T03:52:36.274Z,99039.55
2023-04-07T03:53:41.463Z,99037.81
2023-04-07T03:54:46.670Z,99045.04
2023-04-07T03:55:51.856Z,99046.49
2023-04-07T03:56:57.060Z,99043.86
2023-04-07T03:58:02.271Z,99050.69
2023-04-07T03:59:07.514Z,99046.77
2023-04-07T04:00:12.712Z,99048.31
2023-04-07T04:01:17.902Z,99052.53
2023-04-07T04:02:23.313Z,99050.27
2023-04-07T04:03:29.055Z,99042.33
2023-04-07T04:04:34.589Z,99051.71
2023-04-07T04:05:39.851Z,99051.18
2023-04-07T04:06:45.079Z,99050.69
2023-04-07T04:07:50.302Z,99056.45
2023-04-07T04:08:55.522Z,99051.09
2023-04-07T04:10:00.737Z,99050.28
2023-04-07T04:11:05.975Z,99052.85
2023-04-07T04:12:11.139Z,99056.56
2023-04-07T04:13:16.345Z,99055.84
2023-04-07T04:14:21.569Z,99058.81
2023-04-07T04:15:26.774Z,99064.62
2023-04-07T04:16:32.022Z,99063.69
2023-04-07T04:17:37.427Z,99069.87
2023-04-07T04:18:42.853Z,99073.16
2023-04-07T04:19:48.067Z,99068.84
2023-04-07T04:20:53.262Z,99072.74
2023-04-07T04:21:58.464Z,99077.7
2023-04-07T04:23:03.698Z,99074.81
2023-04-07T04:24:08.935Z,99069.85
2023-04-07T04:25:14.168Z,99079.86
2023-04-07T04:26:19.639Z,99079.25
2023-04-07T04:27:24.837Z,99079.05
2023-04-07T04:28:30.067Z,99073.88
2023-04-07T04:29:35.301Z,99077.91
2023-04-07T04:30:40.525Z,99076.25
2023-04-07T04:31:45.850Z,99073.31
2023-04-07T04:32:51.231Z,99077.75
2023-04-07T04:33:56.631Z,99076.82
2023-04-07T04:35:01.813Z,99081.05
2023-04-07T04:36:07.040Z,99076.09
2023-04-07T04:37:12.245Z,99074.23
2023-04-07T04:38:17.458Z,99068.55
2023-04-07T04:39:22.682Z,99061.03
2023-04-07T04:40:27.885Z,99067.72
2023-04-07T04:41:33.088Z,99052.14
2023-04-07T04:42:38.433Z,99040.27
2023-04-07T04:43:43.948Z,99029.13
2023-04-07T04:44:49.254Z,99025.11
2023-04-07T04:45:54.448Z,99024.06
2023-04-07T04:46:59.814Z,99020.27
2023-04-07T04:48:05.169Z,99033.48
2023-04-07T04:49:10.512Z,99035.11
2023-04-07T04:50:15.717Z,99044.09
2023-04-07T04:51:20.970Z,99050.38
2023-04-07T04:52:26.202Z,99048.22
2023-04-07T04:53:31.377Z,99049.97
2023-04-07T04:54:36.552Z,99054.84
2023-04-07T04:55:41.825Z,99055.36
2023-04-07T04:56:47.083Z,99057.11
2023-04-07T04:57:52.292Z,99059.55
2023-04-07T04:58:57.481Z,99061.73
2023-04-07T05:00:02.677Z,99065.67
2023-04-07T05:01:07.997Z,99068.64
2023-04-07T05:02:13.436Z,99072.14
2023-04-07T05:03:19.412Z,99062.95
2023-04-07T05:04:25.649Z,99066.77
2023-04-07T05:05:31.150Z,99066.57
2023-04-07T05:06:36.369Z,99057.99
2023-04-07T05:07:41.610Z,99061.52
2023-04-07T05:08:46.839Z,99056.97
2023-04-07T05:09:52.075Z,99059.56
2023-04-07T05:10:57.326Z,99058.51
2023-04-07T05:12:02.537Z,99065.73
2023-04-07T05:13:07.775Z,99061.3
2023-04-07T05:14:12.986Z,99060.98
2023-04-07T05:15:18.232Z,99072.02
2023-04-07T05:16:23.529Z,99075.02
2023-04-07T05:17:28.900Z,99087.09
2023-04-07T05:18:34.164Z,99078.1
2023-04-07T05:19:39.437Z,99087.28
2023-04-07T05:20:44.664Z,99089.95
2023-04-07T05:21:49.897Z,99086.45
2023-04-07T05:22:55.111Z,99089.05
2023-04-07T05:24:00.347Z,99088.84
2023-04-07T05:25:05.604Z,99091.72
2023-04-07T05:26:10.815Z,99088.01
2023-04-07T05:27:16.011Z,99085.31
2023-04-07T05:28:21.208Z,99084.19
2023-04-07T05:29:26.501Z,99087.67
2023-04-07T05:30:31.695Z,99086.85
2023-04-07T05:31:36.966Z,99082.81
2023-04-07T05:32:42.325Z,99085.83
2023-04-07T05:33:47.633Z,99083.25
2023-04-07T05:34:53.306Z,99086.43
2023-04-07T05:35:58.692Z,99084.58
2023-04-07T05:37:04.094Z,99077.88
2023-04-07T05:38:09.320Z,99077.34
2023-04-07T05:39:14.557Z,99081.48
2023-04-07T05:40:19.765Z,99082.2
2023-04-07T05:41:25.070Z,99083.33
2023-04-07T05:42:30.260Z,99084.15
2023-04-07T05:43:35.455Z,99086.5
2023-04-07T05:44:40.645Z,99081.05
2023-04-07T05:45:45.914Z,99075.8
2023-04-07T05:46:51.298Z,99080.23
2023-04-07T05:47:56.668Z,99078.56
2023-04-07T05:49:19.853Z,99077.13
2023-04-07T05:50:25.724Z,99079.8
2023-04-07T05:51:31.007Z,99071.14
2023-04-07T05:52:36.223Z,99068.95
2023-04-07T05:53:41.455Z,99071.63
2023-04-07T05:54:46.704Z,99079.37
2023-04-07T05:55:51.875Z,99071.54
2023-04-07T05:56:57.082Z,99073.27
2023-04-07T05:58:02.342Z,99079.25
2023-04-07T05:59:07.554Z,99074.53
2023-04-07T06:00:12.801Z,99079.76
2023-04-07T06:01:18.014Z,99079.67
2023-04-07T06:02:23.525Z,99080.28
2023-04-07T06:03:29.278Z,99079.55
2023-04-07T06:04:34.638Z,99066.24
2023-04-07T06:05:40.056Z,99078.63
2023-04-07T06:06:45.525Z,99070.9
2023-04-07T06:07:50.705Z,99074.8
2023-04-07T06:08:55.902Z,99069.45
2023-04-07T06:10:01.090Z,99071.31
2023-04-07T06:11:06.282Z,99062.32
2023-04-07T06:12:11.494Z,99065.61
2023-04-07T06:13:16.754Z,99062.63
2023-04-07T06:14:21.964Z,99058.61
2023-04-07T06:15:27.202Z,99060.75
2023-04-07T06:16:32.540Z,99057.34
2023-04-07T06:17:37.826Z,99057.34
2023-04-07T06:18:43.035Z,99055.34
2023-04-07T06:19:48.238Z,99059.58
2023-04-07T06:20:53.514Z,99058.95
2023-04-07T06:21:58.709Z,99061.22
2023-04-07T06:23:03.936Z,99053.83
2023-04-07T06:24:09.168Z,99061.02
2023-04-07T06:25:14.425Z,99058.04
2023-04-07T06:26:19.630Z,99053.4
2023-04-07T06:27:24.886Z,99056.08
2023-04-07T06:28:30.077Z,99052.86
2023-04-07T06:29:35.240Z,99060.7
2023-04-07T06:30:40.566Z,99059.36
2023-04-07T06:31:45.871Z,99055.13
2023-04-07T06:32:51.219Z,99057.28
2023-04-07T06:33:56.595Z,99060.59
2023-04-07T06:35:01.805Z,99056.37
2023-04-07T06:36:06.986Z,99062.54
2023-04-07T06:37:12.222Z,99066.75
2023-04-07T06:38:17.483Z,99070.44
2023-04-07T06:39:22.694Z,99077.66
2023-04-07T06:40:28.100Z,99072.94
2023-04-07T06:41:33.316Z,99070.45
2023-04-07T06:42:38.508Z,99077.55
2023-04-07T06:43:43.805Z,99072.5
2023-04-07T06:44:49.292Z,99071.36
2023-04-07T06:45:54.535Z,99079.8
2023-04-07T06:46:59.795Z,99081.25
2023-04-07T06:48:05.076Z,99079.37
2023-04-07T06:49:10.679Z,99081.23
2023-04-07T06:50:15.931Z,99076.09
2023-04-07T06:51:21.122Z,99069.07
2023-04-07T06:52:26.379Z,99055.11
2023-04-07T06:53:31.587Z,99071.64
2023-04-07T06:54:36.850Z,99067.22
2023-04-07T06:55:42.039Z,99065.67
2023-04-07T06:56:47.510Z,99068.42
2023-04-07T06:57:52.721Z,99073.18
2023-04-07T06:58:58.010Z,99062.87
2023-04-07T07:00:03.260Z,99067.2
2023-04-07T07:01:08.643Z,99072.13
2023-04-07T07:02:14.351Z,99067.71
2023-04-07T07:03:20.210Z,99077.6
2023-04-07T07:04:26.167Z,99073.29
2023-04-07T07:05:31.768Z,99072.63
2023-04-07T07:06:36.987Z,99063.68
2023-04-07T07:07:42.219Z,99068.62
2023-04-07T07:08:47.518Z,99065.54
2023-04-07T07:09:52.725Z,99072.13
2023-04-07T07:10:57.944Z,99076.66
2023-04-07T07:12:05.245Z,99078.48
2023-04-07T07:13:10.461Z,99071.69
2023-04-07T07:14:15.672Z,99072.62
2023-04-07T07:15:20.880Z,99074.67
2023-04-07T07:16:26.413Z,99072.29
2023-04-07T07:17:31.752Z,99078.16
2023-04-07T07:18:36.985Z,99076.94
2023-04-07T07:19:42.217Z,99077.42
2023-04-07T07:20:47.415Z,99079.2
2023-04-07T07:21:52.616Z,99074.53
2023-04-07T07:22:57.984Z,99073.83
2023-04-07T07:24:04.499Z,99076.39
2023-04-07T07:25:09.732Z,99071.97
2023-04-07T07:26:14.925Z,99076.91
2023-04-07T07:27:20.130Z,99081.34
2023-04-07T07:28:25.369Z,99075.55
2023-04-07T07:29:30.543Z,99084.73
2023-04-07T07:30:35.782Z,99078.23
2023-04-07T07:31:41.012Z,99077.2
2023-04-07T07:32:46.369Z,99080.06
2023-04-07T07:33:52.045Z,99088.42
2023-04-07T07:34:57.309Z,99088.61
2023-04-07T07:36:02.559Z,99078.62
2023-04-07T07:37:07.806Z,99085.94
2023-04-07T07:38:12.982Z,99074.9
2023-04-07T07:39:18.176Z,99069.25
2023-04-07T07:40:23.411Z,99070.59
2023-04-07T07:41:28.760Z,99069.33
2023-04-07T07:42:33.956Z,99068.92
2023-04-07T07:43:39.264Z,99074.8
2023-04-07T07:44:44.448Z,99080.75
2023-04-07T07:45:49.725Z,99082.69
2023-04-07T07:46:55.140Z,99084.88
2023-04-07T07:48:00.553Z,99085.47
2023-04-07T07:49:05.845Z,99082.91
2023-04-07T07:50:11.092Z,99085.25
2023-04-07T07:51:16.433Z,99088.56
2023-04-07T07:52:21.697Z,99084.14
2023-04-07T07:53:26.963Z,99081.24
2023-04-07T07:54:32.199Z,99084.73
2023-04-07T07:55:40.111Z,99087.19
2023-04-07T07:56:45.331Z,99091.65
2023-04-07T07:57:50.568Z,99085.45
2023-04-07T07:58:57.151Z,99092.98
2023-04-07T08:00:03.393Z,99090.09
2023-04-07T08:01:08.589Z,99080.17
2023-04-07T08:02:13.891Z,99094.19
2023-04-07T08:03:19.464Z,99095.3
2023-04-07T08:04:24.986Z,99091.81
2023-04-07T08:05:30.264Z,99081.92
2023-04-07T08:06:35.467Z,99083.67
2023-04-07T08:07:40.651Z,99083.05
2023-04-07T08:08:45.961Z,99070.78
2023-04-07T08:09:51.190Z,99075.31
2023-04-07T08:10:56.428Z,99073.46
2023-04-07T08:12:01.642Z,99078.11
2023-04-07T08:13:06.877Z,99079.33
2023-04-07T08:14:12.102Z,99081
2023-04-07T08:15:17.325Z,99081.41
2023-04-07T08:16:22.591Z,99080.67
2023-04-07T08:17:28.055Z,99077.17
2023-04-07T08:18:33.303Z,99070.05
2023-04-07T08:19:38.555Z,99071.8
2023-04-07T08:20:43.788Z,99073.88
2023-04-07T08:21:49.007Z,99073.02
2023-04-07T08:22:54.229Z,99077.45
2023-04-07T08:23:59.456Z,99074.25
2023-04-07T08:25:04.684Z,99074.99
2023-04-07T08:26:09.888Z,99067.45
2023-04-07T08:27:15.084Z,99069.5
2023-04-07T08:28:20.294Z,99074.14
2023-04-07T08:29:25.526Z,99070.64
2023-04-07T08:30:30.799Z,99069.09
2023-04-07T08:31:36.161Z,99077.12
2023-04-07T08:32:41.564Z,99072.28
2023-04-07T08:33:47.480Z,99070.54
2023-04-07T08:34:53.249Z,99068.58
2023-04-07T08:35:58.523Z,99072.66
2023-04-07T08:37:03.801Z,99078.53
2023-04-07T08:38:08.985Z,99082.88
2023-04-07T08:39:14.188Z,99085.55
2023-04-07T08:40:19.389Z,99074.3
2023-04-07T08:41:24.572Z,99087.08
2023-04-07T08:42:29.749Z,99080.33
2023-04-07T08:43:34.967Z,99080.55
2023-04-07T08:44:40.141Z,99087.09
2023-04-07T08:45:45.341Z,99091.69
2023-04-07T08:46:50.773Z,99065.53
2023-04-07T08:47:56.193Z,99091.44
2023-04-07T08:49:01.463Z,99092.37
2023-04-07T08:50:06.641Z,99093.79
2023-04-07T08:51:11.829Z,99092.37
2023-04-07T08:52:17.007Z,99081.97
2023-04-07T08:53:22.216Z,99090.81
2023-04-07T08:54:27.410Z,99090.08
2023-04-07T08:55:32.622Z,99093.67
2023-04-07T08:56:38.051Z,99087.17
2023-04-07T08:57:43.455Z,99099.55
2023-04-07T08:58:48.670Z,99090.05
2023-04-07T08:59:54.081Z,99094.98
2023-04-07T09:00:59.734Z,99104.98
2023-04-07T09:02:05.314Z,99109.51
2023-04-07T09:03:13.052Z,99104.56
2023-04-07T09:04:18.900Z,99106.09
2023-04-07T09:05:24.455Z,99109.8
2023-04-07T09:06:29.707Z,99116.71
2023-04-07T09:07:35.122Z,99099.41
2023-04-07T09:08:40.323Z,99091.64
2023-04-07T09:09:45.520Z,99103.64
2023-04-07T09:10:53.665Z,99100.47
2023-04-07T09:12:10.261Z,99101.41
2023-04-07T09:13:15.534Z,99102.55
2023-04-07T09:14:20.811Z,99097.53
2023-04-07T09:15:26.167Z,99094.7
2023-04-07T09:16:31.463Z,99090.98
2023-04-07T09:17:36.930Z,99089.34
2023-04-07T09:18:42.266Z,99091.12
2023-04-07T09:19:47.781Z,99092.6
2023-04-07T09:20:53.195Z,99089.92
2023-04-07T09:21:58.546Z,99090.44
2023-04-07T09:23:03.747Z,99090.06
2023-04-07T09:24:08.953Z,99089.44
2023-04-07T09:25:14.210Z,99086.67
2023-04-07T09:26:19.729Z,99082.36
2023-04-07T09:27:25.274Z,99090.42
2023-04-07T09:28:30.501Z,99079.3
2023-04-07T09:29:35.748Z,99086.43
2023-04-07T09:30:40.958Z,99085.53
2023-04-07T09:31:46.255Z,99089.13
2023-04-07T09:32:51.716Z,99080.5
2023-04-07T09:33:57.272Z,99076.48
2023-04-07T09:35:02.595Z,99076.2
2023-04-07T09:36:08.031Z,99080.41
2023-04-07T09:37:13.333Z,99073.42
2023-04-07T09:38:18.586Z,99070.03
2023-04-07T09:39:23.950Z,99070.3
2023-04-07T09:40:29.186Z,99075.16
2023-04-07T09:41:34.450Z,99066.19
2023-04-07T09:42:39.804Z,99070.09
2023-04-07T09:43:45.037Z,99069.79
2023-04-07T09:44:50.662Z,99072.77
2023-04-07T09:45:55.932Z,99074.41
2023-04-07T09:47:01.167Z,99074.19
2023-04-07T09:48:06.372Z,99073.56
2023-04-07T09:49:11.762Z,99078.2
2023-04-07T09:50:16.953Z,99070.8
2023-04-07T09:51:22.144Z,99072.14
2023-04-07T09:52:27.335Z,99074.1
2023-04-07T09:53:32.527Z,99071.37
2023-04-07T09:54:37.764Z,99067.84
2023-04-07T09:55:43.110Z,99067.98
2023-04-07T09:56:49.509Z,99074.77
2023-04-07T09:57:55.841Z,99070.98
2023-04-07T09:59:01.061Z,99070.19
2023-04-07T10:00:06.332Z,99072.23
2023-04-07T10:01:11.628Z,99076.27
2023-04-07T10:02:16.988Z,99066.89
2023-04-07T10:03:22.284Z,99073.71
2023-04-07T10:04:27.748Z,99073.84
2023-04-07T10:05:33.074Z,99064.26
2023-04-07T10:06:38.269Z,99077.34
2023-04-07T10:07:44.233Z,99074.14
2023-04-07T10:08:49.810Z,99068.77
2023-04-07T10:09:55.228Z,99068.98
2023-04-07T10:11:00.454Z,99065.98
2023-04-07T10:12:05.695Z,99065.38
2023-04-07T10:13:10.924Z,99066.09
2023-04-07T10:14:16.092Z,99067.04
2023-04-07T10:15:21.295Z,99058.38
2023-04-07T10:16:26.548Z,99059.91
2023-04-07T10:17:32.029Z,99061.06
2023-04-07T10:18:37.454Z,99061.99
2023-04-07T10:19:42.650Z,99063.73
2023-04-07T10:20:47.952Z,99062.98
2023-04-07T10:21:53.156Z,99059.72
2023-04-07T10:22:58.373Z,99051.08
2023-04-07T10:24:03.599Z,99054.09
2023-04-07T10:25:08.844Z,99058.22
2023-04-07T10:26:14.071Z,99050.59
2023-04-07T10:27:19.398Z,99058.33
2023-04-07T10:28:24.684Z,99058.41
2023-04-07T10:29:29.944Z,99055.24
2023-04-07T10:30:35.276Z,99062.95
2023-04-07T10:31:40.667Z,99064.5
2023-04-07T10:32:46.110Z,99058.72
2023-04-07T10:33:52.000Z,99029.8
2023-04-07T10:34:57.540Z,99068.28
2023-04-07T10:36:02.995Z,99063.97
2023-04-07T10:37:08.365Z,99069.82
2023-04-07T10:38:14.256Z,99069.39
2023-04-07T10:39:19.589Z,99073.95
2023-04-07T10:40:24.899Z,99066.11
2023-04-07T10:41:30.219Z,99068.4
2023-04-07T10:42:35.630Z,99078.91
2023-04-07T10:43:40.951Z,99073.03
2023-04-07T10:44:46.407Z,99073.86
2023-04-07T10:45:54.732Z,99074.09
2023-04-07T10:47:00.017Z,99065.66
2023-04-07T10:48:07.872Z,99068.73
2023-04-07T10:49:13.112Z,99068.79
2023-04-07T10:50:20.866Z,99071.47
2023-04-07T10:51:26.236Z,99073.34
2023-04-07T10:52:31.609Z,99069.94
2023-04-07T10:53:36.943Z,99069.39
2023-04-07T10:54:42.208Z,99055.23
2023-04-07T10:55:47.638Z,99062.17
2023-04-07T10:56:52.851Z,99057.42
2023-04-07T10:57:58.139Z,99059.17
2023-04-07T10:59:03.474Z,99059.58
2023-04-07T11:00:08.811Z,99056.9
2023-04-07T11:01:14.163Z,99056
2023-04-07T11:02:19.590Z,99055.78
2023-04-07T11:03:25.946Z,99055.87
2023-04-07T11:04:31.781Z,99051.34
2023-04-07T11:05:37.334Z,99043.93
2023-04-07T11:06:42.644Z,99045.34
2023-04-07T11:07:47.875Z,99048.47
2023-04-07T11:08:53.111Z,99049.7
2023-04-07T11:09:58.362Z,99052.47
2023-04-07T11:11:03.781Z,99052
2023-04-07T11:12:09.111Z,99059.5
2023-04-07T11:13:14.384Z,99063.56
2023-04-07T11:14:19.588Z,99059.62
2023-04-07T11:15:24.817Z,99060.88
2023-04-07T11:16:30.267Z,99066.54
2023-04-07T11:17:35.766Z,99057.36
2023-04-07T11:18:41.173Z,99064.49
2023-04-07T11:19:46.413Z,99065.3
2023-04-07T11:20:51.687Z,99063.95
2023-04-07T11:21:56.975Z,99065.24
2023-04-07T11:23:02.221Z,99066.91
2023-04-07T11:24:07.432Z,99065.03
2023-04-07T13:56:56.442Z,99095.34
2023-04-07T13:58:01.722Z,99080.8
2023-04-07T13:59:06.915Z,99095.03
2023-04-07T14:00:12.329Z,99089.69
2023-04-07T14:01:17.653Z,99099.39
2023-04-07T14:02:23.343Z,99097.14
2023-04-07T14:03:29.060Z,99102.39
2023-04-07T14:04:34.580Z,99096.09
2023-04-07T14:05:40.074Z,99090.09
2023-04-07T14:06:45.501Z,99100.03
2023-04-07T14:07:50.814Z,99097.44
2023-04-07T14:08:56.223Z,99094.34
2023-04-07T14:10:01.517Z,99096.83
2023-04-07T14:11:06.780Z,99095.08
2023-04-07T14:12:12.055Z,99097.22
2023-04-07T14:13:17.267Z,99096.93
2023-04-07T14:14:22.441Z,99104.13
2023-04-07T14:15:27.739Z,99088.77
2023-04-07T14:16:35.845Z,99089.89
2023-04-07T14:17:41.301Z,99100.33
2023-04-07T14:18:46.689Z,99104.23
2023-04-07T14:19:51.950Z,99097.75
2023-04-07T14:20:57.172Z,99095.59
2023-04-07T14:22:02.562Z,99101.86
2023-04-07T14:23:07.770Z,99096.31
2023-04-07T14:24:12.950Z,99103.63
2023-04-07T14:25:18.579Z,99109.61
2023-04-07T14:26:23.954Z,99106.84
2023-04-07T14:27:33.801Z,99103.02
2023-04-07T14:28:39.285Z,99103.76
2023-04-07T14:29:44.649Z,99114.48
2023-04-07T14:30:51.653Z,99109.94
2023-04-07T14:31:56.874Z,99100.73
2023-04-07T14:33:05.106Z,99109.92
2023-04-07T14:34:10.456Z,99105.59
2023-04-07T14:35:15.633Z,99108.16
2023-04-07T14:36:20.981Z,99107.13
2023-04-07T14:37:26.257Z,99111.15
2023-04-07T14:38:33.406Z,99109.19
2023-04-07T14:39:40.010Z,99111.34
2023-04-07T14:40:47.526Z,99104.84
2023-04-07T14:41:52.728Z,99104.64
2023-04-07T14:44:11.387Z,99110.64
2023-04-07T14:45:16.624Z,99106.2
2023-04-07T14:46:21.866Z,99107.86
2023-04-07T14:47:27.263Z,99092.92
2023-04-07T14:48:32.615Z,99108.99
2023-04-07T14:49:37.835Z,99104.25
2023-04-07T14:50:43.029Z,99105.59
2023-04-07T14:51:48.315Z,99101.06
2023-04-07T14:52:53.546Z,99109.13
2023-04-07T14:53:58.742Z,99110.13
2023-04-07T14:55:03.930Z,99105.49
2023-04-07T14:56:09.156Z,99112.08
2023-04-07T14:57:14.424Z,99101.78
2023-04-07T14:58:19.624Z,99108.48
2023-04-07T14:59:24.837Z,99107.75
2023-04-07T15:00:30.063Z,99114.45
2023-04-07T15:01:35.462Z,99109.2
2023-04-07T15:02:41.742Z,99104.77
2023-04-07T15:03:47.379Z,99108.8
2023-04-07T15:04:53.679Z,99106.39
2023-04-07T15:05:59.002Z,99114.64
2023-04-07T15:07:04.183Z,99109.8
2023-04-07T15:08:09.409Z,99111.67
2023-04-07T15:09:14.616Z,99106.09
2023-04-07T15:10:19.795Z,99104.14
2023-04-07T15:11:24.984Z,99109.3
2023-04-07T15:12:30.195Z,99109.38
2023-04-07T15:13:35.438Z,99107.11
2023-04-07T15:14:40.676Z,99113.73
2023-04-07T15:15:45.944Z,99108.66
2023-04-07T15:16:51.185Z,99122.28
2023-04-07T15:17:56.448Z,99117.44
2023-04-07T15:19:01.706Z,99096.27
2023-04-07T15:20:06.981Z,99108.8
2023-04-07T15:21:12.191Z,99102.39
2023-04-07T15:22:17.409Z,99107.36
2023-04-07T15:23:23.020Z,99098.47
2023-04-07T15:24:28.438Z,99098.8